Skip to main content.
Our real time weather data display below is updated continuously via our 24/7 live data feed.
 TIME   TEMPERATURE   WINDSPEED   DIRECTION   HUMIDITY   BAROMETER   RAINFALL 
8:35 15.0°C (59.0°F) 9.3 kmh (5.8 mph) N 100% 1019.0hPa (30.09 inHg) 0.0mm (0.00 in.)
7:35 13.0°C (55.4 °F) 5.6 kmh (3.5 mph) NW 100% 1019.0hPa (30.09 inHg) 0.0mm (0.00 in.)
6:35 13.0°C (55.4 °F) 3.7 kmh (2.3 mph) N 100% 1017.9hPa (30.06 inHg) 0.0mm (0.00 in.)
5:35 13.0°C (55.4 °F) 5.6 kmh (3.5 mph) N 100% 1019.0hPa (30.09 inHg) 0.0mm (0.00 in.)
4:35 13.0°C (55.4 °F) 5.6 kmh (3.5 mph) NNW 100% 1019.0hPa (30.09 inHg) 0.0mm (0.00 in.)
3:35 14.0°C (57.2 °F) 3.7 kmh (2.3 mph) NE 100% 1019.0hPa (30.09 inHg) 0.0mm (0.00 in.)
2:35 15.0°C (59.0 °F) 7.4 kmh (4.6 mph) NNE 100% 1019.0hPa (30.09 inHg) 0.0mm (0.00 in.)
1:35 15.0°C (59.0 °F) 7.4 kmh (4.6 mph) NE 100% 1019.0hPa (30.09 inHg) 0.0mm (0.00 in.)
0:35 15.0°C (59.0 °F) 11.1 kmh (6.9 mph) NE 100% 1019.0hPa (30.09 inHg) 0.0mm (0.00 in.)
23:35 15.0°C (59.0 °F) 13.0 kmh (8.1 mph) NE 93% 1020.0hPa (30.12 inHg) 0.0mm (0.00 in.)
22:35 15.0°C (59.0 °F) 11.1 kmh (6.9 mph) ENE 93% 1019.0hPa (30.09 inHg) 0.0mm (0.00 in.)
21:35 15.0°C (59.0 °F) 9.3 kmh (5.8 mph) ENE 93% 1019.0hPa (30.09 inHg) 0.0mm (0.00 in.)
20:35 15.0°C (59.0 °F) 11.1 kmh (6.9 mph) ENE 93% 1017.9hPa (30.06 inHg) 0.0mm (0.00 in.)
19:35 16.0°C (60.8 °F) 14.8 kmh (9.2 mph) E 87% 1017.9hPa (30.06 inHg) 0.0mm (0.00 in.)
18:35 17.0°C (62.6 °F) 20.4 kmh (12.7 mph) E 82% 1017.9hPa (30.06 inHg) 0.0mm (0.00 in.)
17:35 16.0°C (60.8 °F) 14.8 kmh (9.2 mph) ENE 87% 1016.9hPa (30.03 inHg) 0.0mm (0.00 in.)
16:35 16.0°C (60.8 °F) 31.5 kmh (19.6 mph) ESE 87% 1016.9hPa (30.03 inHg) 0.0mm (0.00 in.)
15:35 16.0°C (60.8 °F) 25.9 kmh (16.1 mph) ESE 87% 1017.9hPa (30.06 inHg) 0.0mm (0.00 in.)
14:35 16.0°C (60.8 °F) 27.8 kmh (17.3 mph) ESE 87% 1019.0hPa (30.09 inHg) 0.0mm (0.00 in.)
13:35 17.0°C (62.6 °F) 25.9 kmh (16.1 mph) ESE 82% 1020.0hPa (30.12 inHg) 0.0mm (0.00 in.)
12:35 17.0°C (62.6 °F) 31.5 kmh (19.6 mph) ESE 77% 1020.0hPa (30.12 inHg) 0.0mm (0.00 in.)
11:35 18.0°C (64.4 °F) 35.2 kmh (21.9 mph) ESE 72% 1020.0hPa (30.12 inHg) 0.0mm (0.00 in.)
10:33 17.0°C (62.6 °F) 35.2 kmh (21.9 mph) ESE 77% 1020.0hPa (30.12 inHg) 0.0mm (0.00 in.)
9:33 16.0°C (60.8 °F) 27.8 kmh (17.3 mph) ESE 82% 1020.0hPa (30.12 inHg) 0.0mm (0.00 in.)